Airfield :







YOU CAN JOIN US ON...

 
LOGIN :

Register | Disclaimer

   EN    FR    IT 

 









Legend :    VFR   Marginal VFR   IFR   Intensive IFR   Very Intensive IFR
Visi :
Ceiling :
>= 8 km
>= 3000ft
5 to 8 km
1000 to 3000 ft
1500m to 5 km
500 to 1000 ft
800 to 1500m
200 to 500 ft
< 800m
< 200 ft
Symbols :   Thunderstorms  Fog  Heavy snow  Heavy precipitations  Wind > 20 kt






- Airport Elevation : 352 ft


KAUG - Augusta State

CURRENT METAR :
  • 132153Z AUTO 19003KT 10SM CLR 15/10 A3002 RMK AO2 SLP166 T01500100

EXPIRED METARs :
  • 132053Z AUTO 22004KT 10SM CLR 17/09 A3001 RMK AO2 SLP163 T01670089 56007
  • 131953Z AUTO 19004KT 10SM FEW038 18/09 A3002 RMK AO2 SLP165 T01780089

TAF KAUG
Valid from the 13 at 18:00 until the 14 at 18:00 UTC


131739Z 1318/1418 VRB04KT P6SM SCT050
FM140600 00000KT 6SM BR BKN020
FM140900 00000KT 1/2SM FG BKN003
FM141500 VRB03KT P6SM BKN010
FM141700 VRB04KT P6SM BKN035



MET'MAP, your aeronautical weather chart ! - Copyright ORBIFLY December 2007 - Disclaimer

ORBIFLY MET'MAP TEAM :

Programming & Development : Alexandra Zaïnal
Concept & Development : Baudouin d'Aumeries
Co-Development & Prog : Marc-Olivier Méhu
Technical & hardware support : Manuel Goepfert

Contact : metmap@orbifly.com




SOURCES & CREDITS :

   NOAA